sensor_id;sensor_type;location;lat;lon;timestamp;temperature;humidity
9881;DHT22;4979;51.014;6.678;2023-08-07T00:00:21;13.30;99.90
9881;DHT22;4979;51.014;6.678;2023-08-07T00:02:46;13.20;99.90
9881;DHT22;4979;51.014;6.678;2023-08-07T00:05:12;13.10;99.90
9881;DHT22;4979;51.014;6.678;2023-08-07T00:07:38;13.20;99.90
9881;DHT22;4979;51.014;6.678;2023-08-07T00:10:04;13.00;99.90
9881;DHT22;4979;51.014;6.678;2023-08-07T00:12:29;13.20;99.90
9881;DHT22;4979;51.014;6.678;2023-08-07T00:14:55;13.00;99.90
9881;DHT22;4979;51.014;6.678;2023-08-07T00:17:20;13.00;99.90
9881;DHT22;4979;51.014;6.678;2023-08-07T00:19:46;13.10;99.90
9881;DHT22;4979;51.014;6.678;2023-08-07T00:22:11;13.00;99.90
9881;DHT22;4979;51.014;6.678;2023-08-07T00:24:37;13.00;99.90
9881;DHT22;4979;51.014;6.678;2023-08-07T00:27:03;12.90;99.90
9881;DHT22;4979;51.014;6.678;2023-08-07T00:29:28;13.10;99.90
9881;DHT22;4979;51.014;6.678;2023-08-07T00:31:54;13.10;99.90
9881;DHT22;4979;51.014;6.678;2023-08-07T00:34:19;13.10;99.90
9881;DHT22;4979;51.014;6.678;2023-08-07T00:36:45;12.90;99.90
9881;DHT22;4979;51.014;6.678;2023-08-07T00:39:10;12.90;99.90
9881;DHT22;4979;51.014;6.678;2023-08-07T00:41:36;12.90;99.90
9881;DHT22;4979;51.014;6.678;2023-08-07T00:44:02;13.00;99.90
9881;DHT22;4979;51.014;6.678;2023-08-07T00:46:29;12.90;99.90
9881;DHT22;4979;51.014;6.678;2023-08-07T00:48:55;13.00;99.90
9881;DHT22;4979;51.014;6.678;2023-08-07T00:51:23;13.00;99.90
9881;DHT22;4979;51.014;6.678;2023-08-07T00:53:48;12.90;99.90
9881;DHT22;4979;51.014;6.678;2023-08-07T00:56:14;13.00;99.90
9881;DHT22;4979;51.014;6.678;2023-08-07T00:58:40;13.00;99.90
9881;DHT22;4979;51.014;6.678;2023-08-07T01:01:07;13.00;99.90
9881;DHT22;4979;51.014;6.678;2023-08-07T01:03:32;13.00;99.90
9881;DHT22;4979;51.014;6.678;2023-08-07T01:05:58;12.90;99.90
9881;DHT22;4979;51.014;6.678;2023-08-07T01:08:24;12.90;99.90
9881;DHT22;4979;51.014;6.678;2023-08-07T01:13:29;13.00;99.90
9881;DHT22;4979;51.014;6.678;2023-08-07T01:16:01;13.00;99.90
9881;DHT22;4979;51.014;6.678;2023-08-07T01:18:29;13.00;99.90
9881;DHT22;4979;51.014;6.678;2023-08-07T01:20:55;12.90;99.90
9881;DHT22;4979;51.014;6.678;2023-08-07T01:23:21;12.90;99.90
9881;DHT22;4979;51.014;6.678;2023-08-07T01:25:46;12.90;99.90
9881;DHT22;4979;51.014;6.678;2023-08-07T01:28:40;13.00;99.90
9881;DHT22;4979;51.014;6.678;2023-08-07T01:31:10;13.10;99.90
9881;DHT22;4979;51.014;6.678;2023-08-07T01:33:56;13.00;99.90
9881;DHT22;4979;51.014;6.678;2023-08-07T01:36:24;12.90;99.90
9881;DHT22;4979;51.014;6.678;2023-08-07T01:38:51;13.10;99.90
9881;DHT22;4979;51.014;6.678;2023-08-07T01:41:17;13.10;99.90
9881;DHT22;4979;51.014;6.678;2023-08-07T01:43:43;13.00;99.90
9881;DHT22;4979;51.014;6.678;2023-08-07T01:46:10;13.10;99.90
9881;DHT22;4979;51.014;6.678;2023-08-07T01:48:35;13.10;99.90
9881;DHT22;4979;51.014;6.678;2023-08-07T01:51:01;13.10;99.90
9881;DHT22;4979;51.014;6.678;2023-08-07T01:53:27;13.10;99.90
9881;DHT22;4979;51.014;6.678;2023-08-07T01:55:52;13.00;99.90
9881;DHT22;4979;51.014;6.678;2023-08-07T01:58:18;13.10;99.90
9881;DHT22;4979;51.014;6.678;2023-08-07T02:00:43;13.10;99.90
9881;DHT22;4979;51.014;6.678;2023-08-07T02:03:09;13.10;99.90
9881;DHT22;4979;51.014;6.678;2023-08-07T02:05:34;13.10;99.90
9881;DHT22;4979;51.014;6.678;2023-08-07T02:08:00;13.10;99.90
9881;DHT22;4979;51.014;6.678;2023-08-07T02:10:25;13.20;99.90
9881;DHT22;4979;51.014;6.678;2023-08-07T02:12:51;13.10;99.90
9881;DHT22;4979;51.014;6.678;2023-08-07T02:15:17;13.10;99.90
9881;DHT22;4979;51.014;6.678;2023-08-07T02:17:42;13.10;99.90
9881;DHT22;4979;51.014;6.678;2023-08-07T02:20:08;13.10;99.90
9881;DHT22;4979;51.014;6.678;2023-08-07T02:22:34;13.00;99.90
9881;DHT22;4979;51.014;6.678;2023-08-07T02:25:00;13.10;99.90
9881;DHT22;4979;51.014;6.678;2023-08-07T02:27:25;13.10;99.90
9881;DHT22;4979;51.014;6.678;2023-08-07T02:29:51;12.90;99.90
9881;DHT22;4979;51.014;6.678;2023-08-07T02:32:16;12.80;99.90
9881;DHT22;4979;51.014;6.678;2023-08-07T02:34:43;12.90;99.90
9881;DHT22;4979;51.014;6.678;2023-08-07T02:37:08;12.90;99.90
9881;DHT22;4979;51.014;6.678;2023-08-07T02:39:34;12.90;99.90
9881;DHT22;4979;51.014;6.678;2023-08-07T02:41:59;12.80;99.90
9881;DHT22;4979;51.014;6.678;2023-08-07T02:44:25;12.80;99.90
9881;DHT22;4979;51.014;6.678;2023-08-07T02:46:50;12.80;99.90
9881;DHT22;4979;51.014;6.678;2023-08-07T02:49:16;12.90;99.90
9881;DHT22;4979;51.014;6.678;2023-08-07T02:51:42;12.90;99.90
9881;DHT22;4979;51.014;6.678;2023-08-07T02:54:07;12.80;99.90
9881;DHT22;4979;51.014;6.678;2023-08-07T02:56:33;12.90;99.90
9881;DHT22;4979;51.014;6.678;2023-08-07T02:58:59;12.80;99.90
9881;DHT22;4979;51.014;6.678;2023-08-07T03:01:26;12.90;99.90
9881;DHT22;4979;51.014;6.678;2023-08-07T03:03:53;12.90;99.90
9881;DHT22;4979;51.014;6.678;2023-08-07T03:06:18;12.80;99.90
9881;DHT22;4979;51.014;6.678;2023-08-07T03:08:44;12.80;99.90
9881;DHT22;4979;51.014;6.678;2023-08-07T03:11:09;12.90;99.90
9881;DHT22;4979;51.014;6.678;2023-08-07T03:13:35;12.80;99.90
9881;DHT22;4979;51.014;6.678;2023-08-07T03:16:04;12.70;99.90
9881;DHT22;4979;51.014;6.678;2023-08-07T03:18:31;12.90;99.90
9881;DHT22;4979;51.014;6.678;2023-08-07T03:20:58;12.80;99.90
9881;DHT22;4979;51.014;6.678;2023-08-07T03:23:24;12.70;99.90
9881;DHT22;4979;51.014;6.678;2023-08-07T03:25:50;12.80;99.90
9881;DHT22;4979;51.014;6.678;2023-08-07T03:28:17;12.90;99.90
9881;DHT22;4979;51.014;6.678;2023-08-07T03:30:43;12.70;99.90
9881;DHT22;4979;51.014;6.678;2023-08-07T03:33:10;12.80;99.90
9881;DHT22;4979;51.014;6.678;2023-08-07T03:35:35;12.80;99.90
9881;DHT22;4979;51.014;6.678;2023-08-07T03:38:01;12.80;99.90
9881;DHT22;4979;51.014;6.678;2023-08-07T03:40:26;12.80;99.90
9881;DHT22;4979;51.014;6.678;2023-08-07T03:42:52;12.70;99.90
9881;DHT22;4979;51.014;6.678;2023-08-07T03:45:17;12.80;99.90
9881;DHT22;4979;51.014;6.678;2023-08-07T03:47:43;12.80;99.90
9881;DHT22;4979;51.014;6.678;2023-08-07T03:50:09;12.70;99.90
9881;DHT22;4979;51.014;6.678;2023-08-07T03:52:34;12.70;99.90
9881;DHT22;4979;51.014;6.678;2023-08-07T03:55:00;12.70;99.90
9881;DHT22;4979;51.014;6.678;2023-08-07T03:57:25;12.70;99.90
9881;DHT22;4979;51.014;6.678;2023-08-07T03:59:51;12.70;99.90
9881;DHT22;4979;51.014;6.678;2023-08-07T04:02:16;12.60;99.90
9881;DHT22;4979;51.014;6.678;2023-08-07T04:04:42;12.70;99.90
9881;DHT22;4979;51.014;6.678;2023-08-07T04:07:07;12.60;99.90
9881;DHT22;4979;51.014;6.678;2023-08-07T04:09:33;12.80;99.90
9881;DHT22;4979;51.014;6.678;2023-08-07T04:11:58;12.70;99.90
9881;DHT22;4979;51.014;6.678;2023-08-07T04:14:24;12.60;99.90
9881;DHT22;4979;51.014;6.678;2023-08-07T04:16:50;12.80;99.90
9881;DHT22;4979;51.014;6.678;2023-08-07T04:19:16;12.60;99.90
9881;DHT22;4979;51.014;6.678;2023-08-07T04:21:41;12.70;99.90
9881;DHT22;4979;51.014;6.678;2023-08-07T04:24:07;12.80;99.90
9881;DHT22;4979;51.014;6.678;2023-08-07T04:26:38;12.60;99.90
9881;DHT22;4979;51.014;6.678;2023-08-07T04:29:05;12.60;99.90
9881;DHT22;4979;51.014;6.678;2023-08-07T04:31:30;12.70;99.90
9881;DHT22;4979;51.014;6.678;2023-08-07T04:33:57;12.70;99.90
9881;DHT22;4979;51.014;6.678;2023-08-07T04:36:23;12.70;99.90
9881;DHT22;4979;51.014;6.678;2023-08-07T04:38:49;12.60;99.90
9881;DHT22;4979;51.014;6.678;2023-08-07T04:41:15;12.70;99.90
9881;DHT22;4979;51.014;6.678;2023-08-07T04:43:41;12.80;99.90
9881;DHT22;4979;51.014;6.678;2023-08-07T04:46:08;12.80;99.90
9881;DHT22;4979;51.014;6.678;2023-08-07T04:48:35;12.80;99.90
9881;DHT22;4979;51.014;6.678;2023-08-07T04:51:01;12.80;99.90
9881;DHT22;4979;51.014;6.678;2023-08-07T04:53:27;12.80;99.90
9881;DHT22;4979;51.014;6.678;2023-08-07T04:55:52;12.80;99.90
9881;DHT22;4979;51.014;6.678;2023-08-07T04:58:18;12.90;99.90
9881;DHT22;4979;51.014;6.678;2023-08-07T05:00:44;12.90;99.90
9881;DHT22;4979;51.014;6.678;2023-08-07T05:03:09;13.00;99.90
9881;DHT22;4979;51.014;6.678;2023-08-07T05:05:35;13.00;99.90
9881;DHT22;4979;51.014;6.678;2023-08-07T05:08:00;12.90;99.90
9881;DHT22;4979;51.014;6.678;2023-08-07T05:10:26;13.00;99.90
9881;DHT22;4979;51.014;6.678;2023-08-07T05:12:52;13.10;99.90
9881;DHT22;4979;51.014;6.678;2023-08-07T05:15:23;12.90;99.90
9881;DHT22;4979;51.014;6.678;2023-08-07T05:17:50;12.90;99.90
9881;DHT22;4979;51.014;6.678;2023-08-07T05:20:16;13.00;99.90
9881;DHT22;4979;51.014;6.678;2023-08-07T05:22:42;13.00;99.90
9881;DHT22;4979;51.014;6.678;2023-08-07T05:25:08;13.00;99.90
9881;DHT22;4979;51.014;6.678;2023-08-07T05:27:35;13.00;99.90
9881;DHT22;4979;51.014;6.678;2023-08-07T05:30:00;13.10;99.90
9881;DHT22;4979;51.014;6.678;2023-08-07T05:32:26;13.00;99.90
9881;DHT22;4979;51.014;6.678;2023-08-07T05:34:51;13.10;99.90
9881;DHT22;4979;51.014;6.678;2023-08-07T05:37:17;12.90;99.90
9881;DHT22;4979;51.014;6.678;2023-08-07T05:39:42;13.10;99.90
9881;DHT22;4979;51.014;6.678;2023-08-07T05:42:08;13.10;99.90
9881;DHT22;4979;51.014;6.678;2023-08-07T05:44:35;13.10;99.90
9881;DHT22;4979;51.014;6.678;2023-08-07T05:47:01;13.00;99.90
9881;DHT22;4979;51.014;6.678;2023-08-07T05:49:26;13.00;99.90
9881;DHT22;4979;51.014;6.678;2023-08-07T05:51:52;13.10;99.90
9881;DHT22;4979;51.014;6.678;2023-08-07T05:54:18;13.10;99.90
9881;DHT22;4979;51.014;6.678;2023-08-07T05:56:43;13.00;99.90
9881;DHT22;4979;51.014;6.678;2023-08-07T05:59:09;13.10;99.90
9881;DHT22;4979;51.014;6.678;2023-08-07T06:01:34;13.10;99.90
9881;DHT22;4979;51.014;6.678;2023-08-07T06:04:02;13.00;99.90
9881;DHT22;4979;51.014;6.678;2023-08-07T06:06:28;13.10;99.90
9881;DHT22;4979;51.014;6.678;2023-08-07T06:08:55;13.00;99.90
9881;DHT22;4979;51.014;6.678;2023-08-07T06:11:21;13.10;99.90
9881;DHT22;4979;51.014;6.678;2023-08-07T06:13:48;13.10;99.90
9881;DHT22;4979;51.014;6.678;2023-08-07T06:16:14;13.10;99.90
9881;DHT22;4979;51.014;6.678;2023-08-07T06:18:40;13.10;99.90
9881;DHT22;4979;51.014;6.678;2023-08-07T06:21:05;13.00;99.90
9881;DHT22;4979;51.014;6.678;2023-08-07T06:23:33;13.00;99.90
9881;DHT22;4979;51.014;6.678;2023-08-07T06:25:59;13.00;99.90
9881;DHT22;4979;51.014;6.678;2023-08-07T06:28:29;13.00;99.90
9881;DHT22;4979;51.014;6.678;2023-08-07T06:31:04;13.00;99.90
9881;DHT22;4979;51.014;6.678;2023-08-07T06:33:39;13.00;99.90
9881;DHT22;4979;51.014;6.678;2023-08-07T06:36:07;13.00;99.90
9881;DHT22;4979;51.014;6.678;2023-08-07T06:38:36;13.10;99.90
9881;DHT22;4979;51.014;6.678;2023-08-07T06:41:05;13.10;99.90
9881;DHT22;4979;51.014;6.678;2023-08-07T06:43:37;13.10;99.90
9881;DHT22;4979;51.014;6.678;2023-08-07T06:46:03;13.20;99.90
9881;DHT22;4979;51.014;6.678;2023-08-07T06:48:28;13.10;99.90
9881;DHT22;4979;51.014;6.678;2023-08-07T06:50:54;13.20;99.90
9881;DHT22;4979;51.014;6.678;2023-08-07T06:53:20;13.10;99.90
9881;DHT22;4979;51.014;6.678;2023-08-07T06:55:46;13.10;99.90
9881;DHT22;4979;51.014;6.678;2023-08-07T06:58:12;13.10;99.90
9881;DHT22;4979;51.014;6.678;2023-08-07T07:00:38;13.10;99.90
9881;DHT22;4979;51.014;6.678;2023-08-07T07:03:04;13.20;99.90
9881;DHT22;4979;51.014;6.678;2023-08-07T07:05:30;13.10;99.90
9881;DHT22;4979;51.014;6.678;2023-08-07T07:07:57;13.10;99.90
9881;DHT22;4979;51.014;6.678;2023-08-07T07:10:23;13.20;99.90
9881;DHT22;4979;51.014;6.678;2023-08-07T07:12:49;13.10;99.90
9881;DHT22;4979;51.014;6.678;2023-08-07T07:15:15;13.20;99.90
9881;DHT22;4979;51.014;6.678;2023-08-07T07:17:42;13.10;99.90
9881;DHT22;4979;51.014;6.678;2023-08-07T07:20:08;13.10;99.90
9881;DHT22;4979;51.014;6.678;2023-08-07T07:22:36;13.20;99.90
9881;DHT22;4979;51.014;6.678;2023-08-07T07:25:03;13.30;99.90
9881;DHT22;4979;51.014;6.678;2023-08-07T07:27:29;13.30;99.90
9881;DHT22;4979;51.014;6.678;2023-08-07T07:29:55;13.40;99.90
9881;DHT22;4979;51.014;6.678;2023-08-07T07:32:20;13.40;99.90
9881;DHT22;4979;51.014;6.678;2023-08-07T07:34:46;13.30;99.90
9881;DHT22;4979;51.014;6.678;2023-08-07T07:37:12;13.50;99.90
9881;DHT22;4979;51.014;6.678;2023-08-07T07:39:39;13.50;99.90
9881;DHT22;4979;51.014;6.678;2023-08-07T07:42:05;13.60;99.90
9881;DHT22;4979;51.014;6.678;2023-08-07T07:44:31;13.50;99.90
9881;DHT22;4979;51.014;6.678;2023-08-07T07:46:57;13.40;99.90
9881;DHT22;4979;51.014;6.678;2023-08-07T07:49:22;13.60;99.90
9881;DHT22;4979;51.014;6.678;2023-08-07T07:51:48;13.70;99.90
9881;DHT22;4979;51.014;6.678;2023-08-07T07:54:14;13.70;99.90
9881;DHT22;4979;51.014;6.678;2023-08-07T07:56:40;13.80;99.90
9881;DHT22;4979;51.014;6.678;2023-08-07T07:59:06;13.90;99.90
9881;DHT22;4979;51.014;6.678;2023-08-07T08:01:31;13.90;99.90
9881;DHT22;4979;51.014;6.678;2023-08-07T08:03:57;14.00;99.90
9881;DHT22;4979;51.014;6.678;2023-08-07T08:06:22;14.10;99.90
9881;DHT22;4979;51.014;6.678;2023-08-07T08:08:48;14.20;99.90
9881;DHT22;4979;51.014;6.678;2023-08-07T08:11:13;14.20;99.90
9881;DHT22;4979;51.014;6.678;2023-08-07T08:13:39;14.10;99.90
9881;DHT22;4979;51.014;6.678;2023-08-07T08:16:06;14.10;99.90
9881;DHT22;4979;51.014;6.678;2023-08-07T08:18:32;14.30;99.90
9881;DHT22;4979;51.014;6.678;2023-08-07T08:20:57;14.20;99.90
9881;DHT22;4979;51.014;6.678;2023-08-07T08:23:23;14.30;99.90
9881;DHT22;4979;51.014;6.678;2023-08-07T08:25:49;14.30;99.90
9881;DHT22;4979;51.014;6.678;2023-08-07T08:28:14;14.30;99.90
9881;DHT22;4979;51.014;6.678;2023-08-07T08:30:41;14.30;99.90
9881;DHT22;4979;51.014;6.678;2023-08-07T08:33:07;14.40;99.90
9881;DHT22;4979;51.014;6.678;2023-08-07T08:35:34;12.00;99.90
9881;DHT22;4979;51.014;6.678;2023-08-07T08:38:00;14.70;99.90
9881;DHT22;4979;51.014;6.678;2023-08-07T08:40:26;14.80;99.90
9881;DHT22;4979;51.014;6.678;2023-08-07T08:42:53;14.90;99.90
9881;DHT22;4979;51.014;6.678;2023-08-07T08:45:24;15.00;99.90
9881;DHT22;4979;51.014;6.678;2023-08-07T08:47:52;15.20;99.90
9881;DHT22;4979;51.014;6.678;2023-08-07T08:50:20;15.30;99.90
9881;DHT22;4979;51.014;6.678;2023-08-07T08:52:46;15.30;99.90
9881;DHT22;4979;51.014;6.678;2023-08-07T08:55:13;15.40;99.90
9881;DHT22;4979;51.014;6.678;2023-08-07T08:57:39;15.50;99.90
9881;DHT22;4979;51.014;6.678;2023-08-07T09:00:09;15.60;99.90
9881;DHT22;4979;51.014;6.678;2023-08-07T09:02:47;15.50;99.90
9881;DHT22;4979;51.014;6.678;2023-08-07T09:05:14;15.50;99.90
9881;DHT22;4979;51.014;6.678;2023-08-07T09:07:40;15.40;99.90
9881;DHT22;4979;51.014;6.678;2023-08-07T09:10:07;15.40;99.90
9881;DHT22;4979;51.014;6.678;2023-08-07T09:12:33;15.60;99.90
9881;DHT22;4979;51.014;6.678;2023-08-07T09:15:02;15.80;99.90
9881;DHT22;4979;51.014;6.678;2023-08-07T09:17:31;15.70;99.90
9881;DHT22;4979;51.014;6.678;2023-08-07T09:19:58;15.80;99.90
9881;DHT22;4979;51.014;6.678;2023-08-07T09:22:23;15.90;99.90
9881;DHT22;4979;51.014;6.678;2023-08-07T09:24:49;15.90;99.90
9881;DHT22;4979;51.014;6.678;2023-08-07T09:27:15;16.00;99.90
9881;DHT22;4979;51.014;6.678;2023-08-07T09:29:41;16.20;99.90
9881;DHT22;4979;51.014;6.678;2023-08-07T09:32:08;16.30;99.90
9881;DHT22;4979;51.014;6.678;2023-08-07T09:34:34;16.30;99.90
9881;DHT22;4979;51.014;6.678;2023-08-07T09:37:00;16.40;99.90
9881;DHT22;4979;51.014;6.678;2023-08-07T09:39:26;16.50;99.90
9881;DHT22;4979;51.014;6.678;2023-08-07T09:41:52;16.30;99.90
9881;DHT22;4979;51.014;6.678;2023-08-07T09:44:18;16.40;99.90
9881;DHT22;4979;51.014;6.678;2023-08-07T09:46:44;16.50;99.90
9881;DHT22;4979;51.014;6.678;2023-08-07T09:49:10;16.30;99.90
9881;DHT22;4979;51.014;6.678;2023-08-07T09:51:46;16.30;99.90
9881;DHT22;4979;51.014;6.678;2023-08-07T09:54:12;16.30;99.90
9881;DHT22;4979;51.014;6.678;2023-08-07T09:56:41;16.50;99.90
9881;DHT22;4979;51.014;6.678;2023-08-07T09:59:08;16.60;99.90
9881;DHT22;4979;51.014;6.678;2023-08-07T10:01:36;16.80;99.90
9881;DHT22;4979;51.014;6.678;2023-08-07T10:04:04;17.00;99.90
9881;DHT22;4979;51.014;6.678;2023-08-07T10:06:30;17.20;99.90
9881;DHT22;4979;51.014;6.678;2023-08-07T10:08:56;17.40;99.90
9881;DHT22;4979;51.014;6.678;2023-08-07T10:11:23;17.70;99.90
9881;DHT22;4979;51.014;6.678;2023-08-07T10:13:49;17.70;99.90
9881;DHT22;4979;51.014;6.678;2023-08-07T10:16:15;17.70;99.90
9881;DHT22;4979;51.014;6.678;2023-08-07T10:18:41;17.90;99.90
9881;DHT22;4979;51.014;6.678;2023-08-07T10:21:06;18.00;99.90
9881;DHT22;4979;51.014;6.678;2023-08-07T10:23:36;18.00;99.90
9881;DHT22;4979;51.014;6.678;2023-08-07T10:26:06;18.00;99.90
9881;DHT22;4979;51.014;6.678;2023-08-07T10:28:35;18.20;99.90
9881;DHT22;4979;51.014;6.678;2023-08-07T10:31:06;18.10;99.90
9881;DHT22;4979;51.014;6.678;2023-08-07T10:33:32;18.20;99.90
9881;DHT22;4979;51.014;6.678;2023-08-07T10:35:58;18.40;99.90
9881;DHT22;4979;51.014;6.678;2023-08-07T10:38:29;18.40;99.90
9881;DHT22;4979;51.014;6.678;2023-08-07T10:41:13;18.40;99.90
9881;DHT22;4979;51.014;6.678;2023-08-07T10:43:41;17.80;99.90
9881;DHT22;4979;51.014;6.678;2023-08-07T10:46:09;17.60;99.90
9881;DHT22;4979;51.014;6.678;2023-08-07T10:48:40;17.50;99.90
9881;DHT22;4979;51.014;6.678;2023-08-07T10:51:06;17.40;99.90
9881;DHT22;4979;51.014;6.678;2023-08-07T10:56:21;18.00;99.90
9881;DHT22;4979;51.014;6.678;2023-08-07T10:58:54;18.20;99.90
9881;DHT22;4979;51.014;6.678;2023-08-07T11:03:59;18.20;99.90
9881;DHT22;4979;51.014;6.678;2023-08-07T11:06:30;18.50;99.90
9881;DHT22;4979;51.014;6.678;2023-08-07T11:09:06;18.30;99.90
9881;DHT22;4979;51.014;6.678;2023-08-07T11:11:45;17.90;99.90
9881;DHT22;4979;51.014;6.678;2023-08-07T11:14:13;17.60;99.90
9881;DHT22;4979;51.014;6.678;2023-08-07T11:16:39;17.50;99.90
9881;DHT22;4979;51.014;6.678;2023-08-07T11:19:05;17.50;99.90
9881;DHT22;4979;51.014;6.678;2023-08-07T11:21:31;17.90;99.90
9881;DHT22;4979;51.014;6.678;2023-08-07T11:23:57;18.10;99.90
9881;DHT22;4979;51.014;6.678;2023-08-07T11:26:23;18.40;99.90
9881;DHT22;4979;51.014;6.678;2023-08-07T11:28:50;18.70;99.90
9881;DHT22;4979;51.014;6.678;2023-08-07T11:31:20;18.80;99.90
9881;DHT22;4979;51.014;6.678;2023-08-07T11:33:46;18.90;99.90
9881;DHT22;4979;51.014;6.678;2023-08-07T11:36:13;18.80;99.90
9881;DHT22;4979;51.014;6.678;2023-08-07T11:38:40;19.30;99.90
9881;DHT22;4979;51.014;6.678;2023-08-07T11:41:14;19.50;99.90
9881;DHT22;4979;51.014;6.678;2023-08-07T11:43:40;19.40;99.90
9881;DHT22;4979;51.014;6.678;2023-08-07T11:46:08;19.60;99.90
9881;DHT22;4979;51.014;6.678;2023-08-07T11:48:36;19.10;99.90
9881;DHT22;4979;51.014;6.678;2023-08-07T11:51:03;18.70;99.90
9881;DHT22;4979;51.014;6.678;2023-08-07T11:53:31;18.70;99.90
9881;DHT22;4979;51.014;6.678;2023-08-07T11:55:59;19.00;99.90
9881;DHT22;4979;51.014;6.678;2023-08-07T11:58:27;19.30;99.90
9881;DHT22;4979;51.014;6.678;2023-08-07T12:00:53;19.60;99.90
9881;DHT22;4979;51.014;6.678;2023-08-07T12:03:27;19.40;99.90
9881;DHT22;4979;51.014;6.678;2023-08-07T12:05:56;19.40;99.90
9881;DHT22;4979;51.014;6.678;2023-08-07T12:08:21;19.30;99.90
9881;DHT22;4979;51.014;6.678;2023-08-07T12:10:51;19.40;99.90
9881;DHT22;4979;51.014;6.678;2023-08-07T12:13:23;19.70;99.90
9881;DHT22;4979;51.014;6.678;2023-08-07T12:15:51;19.70;99.90
9881;DHT22;4979;51.014;6.678;2023-08-07T12:18:19;19.60;99.90
9881;DHT22;4979;51.014;6.678;2023-08-07T12:20:46;19.40;99.90
9881;DHT22;4979;51.014;6.678;2023-08-07T12:23:15;19.50;99.90
9881;DHT22;4979;51.014;6.678;2023-08-07T12:25:42;19.20;99.90
9881;DHT22;4979;51.014;6.678;2023-08-07T12:28:08;18.70;99.90
9881;DHT22;4979;51.014;6.678;2023-08-07T12:30:37;19.20;99.90
9881;DHT22;4979;51.014;6.678;2023-08-07T12:33:03;19.60;99.90
9881;DHT22;4979;51.014;6.678;2023-08-07T12:35:34;19.60;99.90
9881;DHT22;4979;51.014;6.678;2023-08-07T12:38:00;20.00;99.90
9881;DHT22;4979;51.014;6.678;2023-08-07T12:40:28;20.10;99.90
9881;DHT22;4979;51.014;6.678;2023-08-07T12:42:54;20.40;99.90
9881;DHT22;4979;51.014;6.678;2023-08-07T12:45:20;20.50;99.90
9881;DHT22;4979;51.014;6.678;2023-08-07T12:47:46;20.20;99.90
9881;DHT22;4979;51.014;6.678;2023-08-07T12:50:11;20.10;99.90
9881;DHT22;4979;51.014;6.678;2023-08-07T12:52:37;20.10;99.90
9881;DHT22;4979;51.014;6.678;2023-08-07T12:55:03;19.90;99.90
9881;DHT22;4979;51.014;6.678;2023-08-07T12:57:31;20.00;99.90
9881;DHT22;4979;51.014;6.678;2023-08-07T12:59:56;19.60;99.90
9881;DHT22;4979;51.014;6.678;2023-08-07T13:02:22;19.70;99.90
9881;DHT22;4979;51.014;6.678;2023-08-07T13:04:47;19.80;99.90
9881;DHT22;4979;51.014;6.678;2023-08-07T13:07:13;20.10;99.90
9881;DHT22;4979;51.014;6.678;2023-08-07T13:09:38;20.30;99.90
9881;DHT22;4979;51.014;6.678;2023-08-07T13:12:04;20.40;99.90
9881;DHT22;4979;51.014;6.678;2023-08-07T13:14:30;20.20;99.90
9881;DHT22;4979;51.014;6.678;2023-08-07T13:16:55;19.70;99.90
9881;DHT22;4979;51.014;6.678;2023-08-07T13:19:21;19.60;99.90
9881;DHT22;4979;51.014;6.678;2023-08-07T13:21:47;19.50;99.90
9881;DHT22;4979;51.014;6.678;2023-08-07T13:24:13;19.40;99.90
9881;DHT22;4979;51.014;6.678;2023-08-07T13:26:38;19.50;99.90
9881;DHT22;4979;51.014;6.678;2023-08-07T13:29:10;19.60;99.90
9881;DHT22;4979;51.014;6.678;2023-08-07T13:31:36;19.30;99.90
9881;DHT22;4979;51.014;6.678;2023-08-07T13:34:01;19.40;99.90
9881;DHT22;4979;51.014;6.678;2023-08-07T13:36:33;19.70;99.90
9881;DHT22;4979;51.014;6.678;2023-08-07T13:38:58;20.00;99.90
9881;DHT22;4979;51.014;6.678;2023-08-07T13:41:26;19.90;99.90
9881;DHT22;4979;51.014;6.678;2023-08-07T13:43:51;20.20;99.90
9881;DHT22;4979;51.014;6.678;2023-08-07T13:46:17;20.10;99.90
9881;DHT22;4979;51.014;6.678;2023-08-07T13:48:44;20.30;99.90
9881;DHT22;4979;51.014;6.678;2023-08-07T13:51:10;20.40;99.90
9881;DHT22;4979;51.014;6.678;2023-08-07T13:53:35;20.30;99.90
9881;DHT22;4979;51.014;6.678;2023-08-07T13:56:01;20.30;99.90
9881;DHT22;4979;51.014;6.678;2023-08-07T13:58:27;20.30;99.90
9881;DHT22;4979;51.014;6.678;2023-08-07T14:00:53;20.00;99.90
9881;DHT22;4979;51.014;6.678;2023-08-07T14:03:18;19.70;99.90
9881;DHT22;4979;51.014;6.678;2023-08-07T14:05:44;19.70;99.90
9881;DHT22;4979;51.014;6.678;2023-08-07T14:08:10;19.70;99.90
9881;DHT22;4979;51.014;6.678;2023-08-07T14:10:36;19.40;99.90
9881;DHT22;4979;51.014;6.678;2023-08-07T14:13:04;19.00;99.90
9881;DHT22;4979;51.014;6.678;2023-08-07T14:15:30;18.80;99.90
9881;DHT22;4979;51.014;6.678;2023-08-07T14:17:55;18.80;99.90
9881;DHT22;4979;51.014;6.678;2023-08-07T14:20:22;19.30;99.90
9881;DHT22;4979;51.014;6.678;2023-08-07T14:22:48;19.80;99.90
9881;DHT22;4979;51.014;6.678;2023-08-07T14:25:13;20.00;99.90
9881;DHT22;4979;51.014;6.678;2023-08-07T14:27:39;19.90;99.90
9881;DHT22;4979;51.014;6.678;2023-08-07T14:30:05;20.10;99.90
9881;DHT22;4979;51.014;6.678;2023-08-07T14:32:31;20.20;99.90
9881;DHT22;4979;51.014;6.678;2023-08-07T14:34:56;19.90;99.90
9881;DHT22;4979;51.014;6.678;2023-08-07T14:37:22;19.70;99.90
9881;DHT22;4979;51.014;6.678;2023-08-07T14:39:47;19.80;99.90
9881;DHT22;4979;51.014;6.678;2023-08-07T14:42:13;19.90;99.90
9881;DHT22;4979;51.014;6.678;2023-08-07T14:44:38;20.00;99.90
9881;DHT22;4979;51.014;6.678;2023-08-07T14:47:04;20.40;99.90
9881;DHT22;4979;51.014;6.678;2023-08-07T14:49:29;20.40;99.90
9881;DHT22;4979;51.014;6.678;2023-08-07T14:51:55;20.60;99.90
9881;DHT22;4979;51.014;6.678;2023-08-07T14:54:21;20.70;99.90
9881;DHT22;4979;51.014;6.678;2023-08-07T14:56:46;20.50;99.90
9881;DHT22;4979;51.014;6.678;2023-08-07T14:59:12;20.50;99.90
9881;DHT22;4979;51.014;6.678;2023-08-07T15:01:37;20.70;99.90
9881;DHT22;4979;51.014;6.678;2023-08-07T15:04:03;20.50;99.90
9881;DHT22;4979;51.014;6.678;2023-08-07T15:06:28;20.30;99.90
9881;DHT22;4979;51.014;6.678;2023-08-07T15:08:54;20.00;99.90
9881;DHT22;4979;51.014;6.678;2023-08-07T15:11:19;19.90;99.90
9881;DHT22;4979;51.014;6.678;2023-08-07T15:13:45;19.90;99.90
9881;DHT22;4979;51.014;6.678;2023-08-07T15:16:10;19.90;99.90
9881;DHT22;4979;51.014;6.678;2023-08-07T15:18:36;19.80;99.90
9881;DHT22;4979;51.014;6.678;2023-08-07T15:21:03;19.90;99.90
9881;DHT22;4979;51.014;6.678;2023-08-07T15:23:28;19.90;99.90
9881;DHT22;4979;51.014;6.678;2023-08-07T15:25:54;19.80;99.90
9881;DHT22;4979;51.014;6.678;2023-08-07T15:28:19;19.70;99.90
9881;DHT22;4979;51.014;6.678;2023-08-07T15:30:48;19.70;99.90
9881;DHT22;4979;51.014;6.678;2023-08-07T15:33:15;19.80;99.90
9881;DHT22;4979;51.014;6.678;2023-08-07T15:35:41;19.90;99.90
9881;DHT22;4979;51.014;6.678;2023-08-07T15:38:06;20.00;99.90
9881;DHT22;4979;51.014;6.678;2023-08-07T15:40:32;20.30;99.90
9881;DHT22;4979;51.014;6.678;2023-08-07T15:42:58;20.10;99.90
9881;DHT22;4979;51.014;6.678;2023-08-07T15:45:23;19.90;99.90
9881;DHT22;4979;51.014;6.678;2023-08-07T15:47:49;19.60;99.90
9881;DHT22;4979;51.014;6.678;2023-08-07T15:50:15;19.40;99.90
9881;DHT22;4979;51.014;6.678;2023-08-07T15:52:40;19.40;99.90
9881;DHT22;4979;51.014;6.678;2023-08-07T15:55:06;19.50;99.90
9881;DHT22;4979;51.014;6.678;2023-08-07T15:57:32;19.70;99.90
9881;DHT22;4979;51.014;6.678;2023-08-07T15:59:58;19.90;99.90
9881;DHT22;4979;51.014;6.678;2023-08-07T16:02:23;19.80;99.90
9881;DHT22;4979;51.014;6.678;2023-08-07T16:04:49;19.80;99.90